Time;durP1;ratioP1;P1;durP2;ratioP2;P2;SDS_P1;SDS_P2;PMS_P1;PMS_P2;Temp;Humidity;BMP_temperature;BMP_pressure;BME280_temperature;BME280_humidity;BME280_pressure;Samples;Min_cycle;Max_cycle;Signal;HPM_P1;HPM_P2
2022/01/31 00:01:18;;;;;;;3.13;3.03;;;16.80;63.90;;;;;;5048441;28;43951;-76
2022/01/31 00:03:48;;;;;;;3.20;3.10;;;16.70;64.00;;;;;;5048124;28;43966;-76
2022/01/31 00:06:16;;;;;;;3.10;3.00;;;16.60;64.20;;;;;;5048833;28;43558;-76
2022/01/31 00:08:45;;;;;;;3.10;3.00;;;16.60;64.30;;;;;;5031903;28;45395;-76
2022/01/31 00:11:15;;;;;;;3.07;2.97;;;16.60;64.40;;;;;;5029038;28;44119;-76
2022/01/31 00:13:54;;;;;;;3.40;3.30;;;16.60;64.70;;;;;;5081517;28;44011;-76
2022/01/31 00:16:25;;;;;;;3.60;3.40;;;16.60;64.70;;;;;;5081080;28;43864;-76
2022/01/31 00:18:54;;;;;;;3.37;3.17;;;16.80;64.20;;;;;;5032853;28;44365;-76
2022/01/31 00:21:23;;;;;;;3.57;3.37;;;16.80;63.70;;;;;;5064898;28;44137;-76
2022/01/31 00:23:52;;;;;;;3.27;3.17;;;16.80;63.50;;;;;;5033497;28;43420;-77
2022/01/31 00:26:24;;;;;;;2.90;2.80;;;16.80;63.70;;;;;;5033671;28;44223;-76
2022/01/31 00:28:53;;;;;;;3.10;3.00;;;16.70;63.80;;;;;;5052056;28;45878;-76
2022/01/31 00:31:22;;;;;;;3.20;3.00;;;16.70;64.00;;;;;;5035199;28;45875;-76
2022/01/31 00:33:51;;;;;;;2.90;2.80;;;16.60;64.10;;;;;;5036053;28;43898;-76
2022/01/31 00:36:21;;;;;;;3.13;3.03;;;16.60;64.20;;;;;;5036265;28;44020;-76
2022/01/31 00:38:49;;;;;;;2.90;2.80;;;16.60;64.40;;;;;;5069602;28;44166;-76
2022/01/31 00:41:18;;;;;;;2.80;2.70;;;16.50;64.40;;;;;;5035094;28;46170;-76
2022/01/31 00:43:58;;;;;;;3.23;3.07;;;16.50;64.50;;;;;;5052592;28;44000;-76
2022/01/31 00:46:33;;;;;;;3.20;3.00;;;16.50;64.60;;;;;;5068120;28;43948;-76
2022/01/31 00:49:02;;;;;;;3.07;2.97;;;16.50;64.60;;;;;;5052624;28;44040;-76
2022/01/31 00:51:30;;;;;;;3.20;3.10;;;16.50;64.70;;;;;;5035734;28;43393;-76
2022/01/31 00:53:59;;;;;;;2.90;2.80;;;16.50;64.80;;;;;;5068719;28;43951;-76
2022/01/31 00:56:28;;;;;;;2.87;2.77;;;16.50;64.70;;;;;;5051661;28;43866;-76
2022/01/31 00:58:58;;;;;;;3.20;3.00;;;16.70;64.30;;;;;;5051085;28;44099;-76
2022/01/31 01:01:26;;;;;;;3.23;3.03;;;16.90;63.80;;;;;;5051054;28;44084;-76
2022/01/31 01:03:56;;;;;;;3.30;3.10;;;17.10;63.10;;;;;;5051029;28;43960;-76
2022/01/31 01:06:24;;;;;;;3.10;3.00;;;17.20;62.70;;;;;;5035059;28;44217;-76
2022/01/31 01:08:53;;;;;;;3.00;2.90;;;17.10;62.60;;;;;;5061823;28;44015;-76
2022/01/31 01:11:22;;;;;;;3.13;2.93;;;17.00;62.60;;;;;;5062066;28;45800;-76
2022/01/31 01:13:50;;;;;;;3.10;3.00;;;16.90;62.90;;;;;;5062058;28;44117;-76
2022/01/31 01:16:20;;;;;;;2.80;2.70;;;16.80;63.20;;;;;;5034956;28;43880;-76
2022/01/31 01:18:50;;;;;;;2.90;2.70;;;16.80;63.60;;;;;;5031649;28;45763;-76
2022/01/31 01:21:19;;;;;;;2.57;2.47;;;16.70;63.70;;;;;;5067671;28;43992;-76
2022/01/31 01:23:50;;;;;;;2.70;2.60;;;16.70;63.90;;;;;;5051094;28;43988;-76
2022/01/31 01:26:19;;;;;;;2.90;2.80;;;16.60;64.00;;;;;;5051462;28;43902;-76
2022/01/31 01:28:51;;;;;;;3.07;2.93;;;16.60;64.10;;;;;;5050972;28;44134;-77
2022/01/31 01:31:22;;;;;;;2.50;2.40;;;16.60;64.30;;;;;;5067943;28;43379;-76
2022/01/31 01:33:54;;;;;;;2.93;2.80;;;16.50;64.30;;;;;;5067984;28;43508;-76
2022/01/31 01:36:23;;;;;;;2.80;2.70;;;16.60;64.60;;;;;;5050910;28;44009;-76
2022/01/31 01:38:52;;;;;;;3.00;2.80;;;16.70;64.10;;;;;;5050910;28;45126;-76
2022/01/31 01:41:21;;;;;;;2.63;2.53;;;16.80;63.70;;;;;;5051249;28;45014;-76
2022/01/31 01:43:49;;;;;;;2.60;2.50;;;16.80;63.40;;;;;;5066713;28;43931;-76
2022/01/31 01:46:18;;;;;;;2.87;2.77;;;16.80;63.60;;;;;;5014640;28;43428;-76
2022/01/31 01:48:49;;;;;;;2.80;2.70;;;16.70;63.60;;;;;;5081844;28;44371;-76
2022/01/31 01:51:17;;;;;;;2.73;2.63;;;16.70;63.80;;;;;;5067288;28;43963;-76
2022/01/31 01:53:47;;;;;;;2.70;2.60;;;16.60;63.90;;;;;;5067016;28;43454;-76
2022/01/31 01:56:16;;;;;;;2.83;2.73;;;16.60;64.10;;;;;;5067506;28;44026;-76
2022/01/31 01:58:48;;;;;;;2.93;2.83;;;16.50;64.10;;;;;;5066902;28;43854;-76
2022/01/31 02:01:16;;;;;;;2.83;2.63;;;16.50;64.30;;;;;;5052597;28;45298;-73
2022/01/31 02:03:51;;;;;;;2.70;2.60;;;16.50;64.30;;;;;;5054336;28;43443;-74
2022/01/31 02:06:23;;;;;;;2.33;2.33;;;16.50;64.40;;;;;;5033312;28;44336;-73
2022/01/31 02:08:52;;;;;;;2.73;2.63;;;16.50;64.50;;;;;;5051891;28;45846;-73
2022/01/31 02:11:29;;;;;;;2.60;2.50;;;16.50;64.60;;;;;;5052209;28;43799;-73
2022/01/31 02:13:59;;;;;;;2.20;2.20;;;16.50;64.70;;;;;;5051095;28;43799;-73
2022/01/31 02:16:48;;;;;;;2.80;2.70;;;16.50;64.70;;;;;;5065016;28;44082;-74
2022/01/31 02:19:24;;;;;;;2.50;2.40;;;16.70;64.10;;;;;;5052122;28;44121;-73
2022/01/31 02:22:24;;;;;;;2.47;2.37;;;16.90;63.60;;;;;;5067682;28;44137;-73
2022/01/31 02:25:01;;;;;;;2.40;2.30;;;17.10;62.80;;;;;;5065288;28;44177;-73
2022/01/31 02:27:30;;;;;;;2.40;2.30;;;17.10;62.40;;;;;;5047988;28;43787;-73
2022/01/31 02:30:01;;;;;;;2.70;2.60;;;17.10;62.40;;;;;;5066317;28;45430;-73
2022/01/31 02:32:37;;;;;;;2.47;2.37;;;17.00;62.60;;;;;;5034745;28;44221;-74
2022/01/31 02:35:06;;;;;;;2.50;2.40;;;16.90;63.00;;;;;;5061913;28;43900;-74
2022/01/31 02:37:37;;;;;;;2.60;2.50;;;16.80;63.30;;;;;;5031626;28;43984;-74
2022/01/31 02:40:24;;;;;;;2.30;2.30;;;16.70;63.50;;;;;;5069021;28;46688;-73
2022/01/31 02:42:53;;;;;;;2.50;2.40;;;16.70;63.70;;;;;;5069818;28;44039;-73
2022/01/31 02:45:26;;;;;;;2.57;2.40;;;16.60;63.80;;;;;;5052956;28;43438;-73
2022/01/31 02:47:57;;;;;;;2.87;2.77;;;16.60;64.10;;;;;;5036592;28;44024;-73
2022/01/31 02:50:30;;;;;;;2.60;2.50;;;16.50;64.00;;;;;;5037584;28;45557;-73
2022/01/31 02:53:11;;;;;;;2.23;2.17;;;16.60;64.30;;;;;;5036171;28;44477;-74
2022/01/31 02:55:42;;;;;;;2.50;2.40;;;16.50;64.20;;;;;;5048590;28;43515;-73
2022/01/31 02:58:13;;;;;;;2.50;2.40;;;16.50;64.30;;;;;;5054048;28;43754;-73
2022/01/31 03:00:42;;;;;;;2.17;2.17;;;16.50;64.40;;;;;;5052822;28;46511;-73
2022/01/31 03:03:21;;;;;;;2.23;2.13;;;16.50;64.30;;;;;;5038759;28;43960;-74
2022/01/31 03:05:51;;;;;;;2.50;2.40;;;16.50;64.50;;;;;;5069612;28;44002;-74
2022/01/31 03:08:22;;;;;;;2.20;2.10;;;16.50;64.70;;;;;;5053152;28;43916;-73
2022/01/31 03:10:50;;;;;;;2.57;2.47;;;16.60;64.50;;;;;;5067865;28;44050;-73
2022/01/31 03:13:38;;;;;;;2.00;2.00;;;16.70;64.10;;;;;;5054535;28;44000;-73
2022/01/31 03:16:07;;;;;;;2.10;2.10;;;16.90;63.60;;;;;;5033989;28;43952;-73
2022/01/31 03:18:54;;;;;;;2.30;2.20;;;17.10;63.00;;;;;;5065047;28;43394;-73
2022/01/31 03:21:23;;;;;;;2.33;2.30;;;17.40;62.40;;;;;;5033467;28;45983;-73
2022/01/31 03:23:53;;;;;;;2.30;2.20;;;17.60;61.80;;;;;;5068130;28;43983;-73
2022/01/31 03:26:22;;;;;;;2.40;2.30;;;17.70;61.20;;;;;;5066313;28;44102;-73
2022/01/31 03:28:53;;;;;;;2.40;2.30;;;17.90;60.70;;;;;;5050367;28;43995;-74
2022/01/31 03:31:22;;;;;;;2.17;2.07;;;18.00;60.40;;;;;;5066736;28;43967;-73
2022/01/31 03:33:51;;;;;;;1.93;1.93;;;18.00;60.10;;;;;;5049702;28;44012;-73
2022/01/31 03:36:20;;;;;;;2.40;2.30;;;18.00;60.10;;;;;;5049574;28;43436;-73
2022/01/31 03:38:48;;;;;;;2.07;2.07;;;18.00;60.30;;;;;;5050298;28;43964;-73
2022/01/31 03:41:19;;;;;;;2.10;2.00;;;17.80;60.60;;;;;;5053499;28;45364;-73
2022/01/31 03:43:48;;;;;;;2.33;2.17;;;17.60;60.90;;;;;;5068535;28;44041;-73
2022/01/31 03:46:17;;;;;;;2.33;2.23;;;17.40;61.40;;;;;;5051011;28;43948;-73
2022/01/31 03:48:46;;;;;;;2.00;1.90;;;17.30;61.80;;;;;;5052035;28;44108;-73
2022/01/31 03:51:33;;;;;;;1.93;1.93;;;17.10;62.20;;;;;;5036902;28;44024;-73
2022/01/31 03:54:03;;;;;;;2.07;2.07;;;17.00;62.50;;;;;;5051825;28;44384;-73
2022/01/31 03:56:33;;;;;;;1.87;1.87;;;16.90;62.90;;;;;;5052146;28;43964;-73
2022/01/31 03:59:20;;;;;;;1.80;1.80;;;16.80;63.10;;;;;;5041354;28;43571;-73
2022/01/31 04:01:51;;;;;;;2.03;2.03;;;16.80;63.70;;;;;;5053634;28;44012;-73
2022/01/31 04:04:20;;;;;;;2.00;1.90;;;16.90;63.50;;;;;;5075270;28;43281;-73
2022/01/31 04:06:49;;;;;;;2.40;2.30;;;17.00;63.00;;;;;;5055146;28;43300;-73
2022/01/31 04:09:18;;;;;;;2.10;2.00;;;17.00;62.80;;;;;;5071335;28;44130;-73
2022/01/31 04:11:47;;;;;;;2.00;1.90;;;17.00;62.90;;;;;;5070970;28;43727;-73
2022/01/31 04:14:16;;;;;;;2.10;2.00;;;16.90;62.90;;;;;;5072916;28;44094;-73
2022/01/31 04:16:44;;;;;;;1.73;1.73;;;16.80;63.10;;;;;;5055654;28;43399;-73
2022/01/31 04:19:12;;;;;;;2.47;2.30;;;16.80;63.40;;;;;;5073179;28;43582;-73
2022/01/31 04:21:41;;;;;;;2.07;1.97;;;16.70;63.50;;;;;;5056225;28;43790;-73
2022/01/31 04:24:09;;;;;;;1.90;1.80;;;16.70;63.70;;;;;;5053649;28;43886;-74
2022/01/31 04:26:45;;;;;;;2.00;1.90;;;16.60;63.80;;;;;;5071396;28;43985;-73
2022/01/31 04:29:18;;;;;;;2.20;2.10;;;16.60;63.90;;;;;;5072985;28;43987;-73
2022/01/31 04:31:49;;;;;;;2.03;1.93;;;16.60;64.00;;;;;;5066532;28;44082;-73
2022/01/31 04:34:17;;;;;;;2.27;2.17;;;16.60;64.50;;;;;;5065729;28;43497;-73
2022/01/31 04:36:46;;;;;;;2.27;2.17;;;16.50;64.10;;;;;;5068436;28;43893;-77
2022/01/31 04:39:18;;;;;;;1.80;1.70;;;16.50;64.40;;;;;;5070562;28;43980;-75
2022/01/31 04:41:47;;;;;;;1.90;1.80;;;16.60;64.30;;;;;;5069924;28;44018;-74
2022/01/31 04:44:16;;;;;;;1.90;1.80;;;16.80;63.90;;;;;;5053224;28;44008;-73
2022/01/31 04:46:49;;;;;;;3.17;2.20;;;17.00;63.30;;;;;;5071694;28;43910;-74
2022/01/31 04:49:19;;;;;;;2.87;2.00;;;17.10;62.90;;;;;;5055975;28;44007;-74
2022/01/31 04:51:48;;;;;;;3.10;2.80;;;17.20;62.50;;;;;;5058238;28;43909;-79
2022/01/31 04:54:17;;;;;;;2.60;2.40;;;17.20;62.40;;;;;;5069008;28;43965;-74
2022/01/31 04:56:46;;;;;;;2.63;2.43;;;17.10;62.50;;;;;;5068844;28;44037;-75
2022/01/31 04:59:19;;;;;;;3.17;2.87;;;17.00;62.70;;;;;;5069224;28;43419;-74
2022/01/31 05:01:48;;;;;;;3.70;2.90;;;16.90;63.00;;;;;;5069222;28;45185;-74
2022/01/31 05:04:17;;;;;;;9.03;3.73;;;16.80;63.20;;;;;;5067997;28;44090;-75
2022/01/31 05:06:47;;;;;;;5.73;3.47;;;16.70;63.40;;;;;;5036141;28;43909;-73
2022/01/31 05:09:15;;;;;;;5.17;3.60;;;16.70;63.60;;;;;;5068642;28;44139;-74
2022/01/31 05:11:45;;;;;;;6.63;3.50;;;16.60;63.70;;;;;;5052624;28;44803;-81
2022/01/31 05:14:17;;;;;;;6.47;3.70;;;16.60;63.80;;;;;;5068257;28;44049;-73
2022/01/31 05:16:46;;;;;;;7.60;4.40;;;16.50;63.90;;;;;;5068120;28;43891;-73
2022/01/31 05:19:15;;;;;;;9.40;4.40;;;16.50;64.30;;;;;;5069021;28;44006;-73
2022/01/31 05:21:43;;;;;;;7.33;4.23;;;16.60;64.20;;;;;;5049857;28;43965;-73
2022/01/31 05:24:12;;;;;;;13.20;5.33;;;16.80;63.70;;;;;;5066709;28;43882;-73
2022/01/31 05:26:41;;;;;;;8.43;4.80;;;16.80;63.30;;;;;;5068000;28;44067;-73
2022/01/31 05:29:10;;;;;;;10.80;4.30;;;16.80;63.20;;;;;;5046908;28;44248;-73
2022/01/31 05:31:40;;;;;;;7.63;4.27;;;16.80;63.30;;;;;;5081946;27;43754;-73
2022/01/31 05:34:09;;;;;;;9.93;4.87;;;16.70;63.40;;;;;;5083614;28;44257;-73
2022/01/31 05:36:37;;;;;;;10.40;5.23;;;16.60;63.50;;;;;;5082648;28;43980;-73
2022/01/31 05:39:06;;;;;;;10.20;5.07;;;16.60;63.80;;;;;;5050213;28;44039;-73
2022/01/31 05:41:34;;;;;;;9.37;4.70;;;16.60;63.90;;;;;;5066520;28;43776;-73
2022/01/31 05:44:05;;;;;;;9.23;4.77;;;16.50;63.90;;;;;;5049750;28;43919;-73
2022/01/31 05:46:34;;;;;;;9.13;4.80;;;16.50;64.10;;;;;;5059758;28;43508;-72
2022/01/31 05:49:04;;;;;;;9.40;5.10;;;16.50;64.20;;;;;;5044046;28;43662;-73
2022/01/31 05:51:34;;;;;;;10.50;5.10;;;16.50;64.30;;;;;;5060233;28;44769;-73
2022/01/31 05:54:02;;;;;;;8.30;4.80;;;16.50;64.30;;;;;;5050540;28;43327;-73
2022/01/31 05:56:31;;;;;;;8.13;4.50;;;16.40;64.30;;;;;;5066978;28;43975;-73
2022/01/31 05:59:00;;;;;;;9.93;4.70;;;16.50;64.60;;;;;;5066882;28;44132;-73
2022/01/31 06:01:29;;;;;;;8.60;4.60;;;16.60;64.40;;;;;;5049403;28;44699;-72
2022/01/31 06:03:58;;;;;;;8.13;4.80;;;16.80;63.80;;;;;;5065719;28;44436;-73
2022/01/31 06:06:29;;;;;;;9.07;4.67;;;17.00;63.20;;;;;;5049431;28;43967;-73
2022/01/31 06:08:58;;;;;;;7.30;4.40;;;17.10;62.70;;;;;;5066491;28;43482;-73
2022/01/31 06:11:28;;;;;;;8.43;4.30;;;17.10;62.50;;;;;;5065798;28;44770;-73
2022/01/31 06:14:00;;;;;;;6.53;4.60;;;17.00;62.40;;;;;;5066200;28;44058;-73
2022/01/31 06:16:28;;;;;;;6.97;4.40;;;16.90;62.60;;;;;;5065784;28;43366;-73
2022/01/31 06:18:57;;;;;;;5.47;4.30;;;16.90;63.00;;;;;;5050004;28;43546;-73
2022/01/31 06:21:25;;;;;;;5.77;4.10;;;16.70;63.10;;;;;;5049165;28;44005;-73
2022/01/31 06:23:56;;;;;;;4.50;4.00;;;16.70;63.40;;;;;;5032739;28;43928;-73
2022/01/31 06:26:24;;;;;;;7.43;4.50;;;16.60;63.60;;;;;;5065538;28;44008;-73
2022/01/31 06:29:12;;;;;;;6.30;3.93;;;16.60;63.80;;;;;;5050331;28;44004;-73
2022/01/31 06:31:47;;;;;;;5.93;4.10;;;16.60;63.90;;;;;;5050146;28;45403;-73
2022/01/31 06:34:18;;;;;;;7.47;4.37;;;16.50;64.00;;;;;;5076285;28;44034;-73
2022/01/31 06:36:47;;;;;;;4.00;3.70;;;16.50;64.10;;;;;;5026506;28;43895;-73
2022/01/31 06:39:17;;;;;;;6.00;3.87;;;16.50;64.50;;;;;;5049787;28;43873;-73
2022/01/31 06:41:46;;;;;;;6.30;4.40;;;16.60;64.20;;;;;;5048265;28;45518;-73
2022/01/31 06:44:15;;;;;;;6.77;4.30;;;16.80;63.80;;;;;;5065330;28;43989;-73
2022/01/31 06:46:44;;;;;;;6.07;4.17;;;17.00;63.20;;;;;;5066787;28;44042;-73
2022/01/31 06:49:13;;;;;;;5.23;3.87;;;17.00;62.70;;;;;;5065653;28;44177;-73
2022/01/31 06:51:41;;;;;;;5.73;3.77;;;17.00;62.60;;;;;;5032317;28;44297;-73
2022/01/31 06:54:09;;;;;;;6.70;4.00;;;16.90;62.80;;;;;;5048463;28;44019;-73
2022/01/31 06:56:42;;;;;;;4.43;3.80;;;16.80;63.00;;;;;;5031800;28;43470;-73
2022/01/31 06:59:10;;;;;;;4.27;3.87;;;16.80;63.30;;;;;;5049095;28;43960;-73
2022/01/31 07:01:41;;;;;;;5.77;4.03;;;16.70;63.50;;;;;;5048407;28;44018;-73
2022/01/31 07:04:11;;;;;;;4.33;3.57;;;16.60;63.60;;;;;;5048897;28;43995;-73
2022/01/31 07:06:39;;;;;;;4.53;3.60;;;16.60;63.80;;;;;;5048344;28;44040;-73
2022/01/31 07:09:08;;;;;;;3.47;3.17;;;16.50;63.90;;;;;;5048873;28;43482;-74
2022/01/31 07:11:40;;;;;;;3.80;3.50;;;16.50;64.00;;;;;;5064615;28;44086;-73
2022/01/31 07:14:29;;;;;;;3.80;3.40;;;16.50;64.10;;;;;;5049494;28;43445;-73
2022/01/31 07:16:59;;;;;;;4.00;3.47;;;16.50;64.20;;;;;;5033835;28;43893;-73
2022/01/31 07:19:30;;;;;;;3.83;3.10;;;16.50;64.50;;;;;;5041363;28;43942;-73
2022/01/31 07:21:59;;;;;;;5.23;3.50;;;16.60;64.10;;;;;;5058742;28;46462;-73
2022/01/31 07:24:41;;;;;;;3.93;3.50;;;16.80;63.60;;;;;;5031236;28;43504;-73
2022/01/31 07:27:10;;;;;;;3.90;3.20;;;16.80;63.10;;;;;;5033562;28;43961;-74
2022/01/31 07:29:39;;;;;;;3.50;3.20;;;16.80;62.90;;;;;;5032049;28;43897;-74
2022/01/31 07:32:10;;;;;;;3.63;3.23;;;16.80;63.00;;;;;;5047717;28;44739;-73
2022/01/31 07:34:39;;;;;;;3.30;3.10;;;16.70;63.20;;;;;;5031478;28;44000;-73
2022/01/31 07:37:07;;;;;;;4.70;3.50;;;16.70;63.50;;;;;;5047319;28;43949;-73
2022/01/31 07:39:37;;;;;;;3.77;3.23;;;16.60;63.60;;;;;;5065001;28;43865;-73
2022/01/31 07:42:06;;;;;;;3.40;3.20;;;16.60;63.80;;;;;;5015177;28;44868;-74
2022/01/31 07:44:47;;;;;;;3.67;3.27;;;16.50;63.90;;;;;;5049316;28;45354;-73
2022/01/31 07:47:16;;;;;;;3.43;2.90;;;16.50;64.00;;;;;;5047685;28;43905;-73
2022/01/31 07:49:44;;;;;;;3.20;3.00;;;16.50;64.20;;;;;;5047690;28;44112;-74
2022/01/31 07:52:12;;;;;;;4.70;3.60;;;16.40;64.10;;;;;;5015302;28;44066;-73
2022/01/31 07:54:41;;;;;;;3.93;3.10;;;16.40;64.20;;;;;;5047654;28;44101;-74
2022/01/31 07:57:09;;;;;;;4.77;3.17;;;16.40;64.50;;;;;;5047979;28;43452;-74
2022/01/31 07:59:58;;;;;;;3.60;3.30;;;16.50;64.50;;;;;;5036979;28;44234;-73
2022/01/31 08:02:27;;;;;;;3.10;2.80;;;16.70;64.00;;;;;;5030913;28;44879;-73
2022/01/31 08:04:56;;;;;;;3.73;3.10;;;16.90;63.50;;;;;;5064372;28;44027;-73
2022/01/31 08:07:24;;;;;;;3.03;2.83;;;16.90;63.00;;;;;;5031265;28;43448;-74
2022/01/31 08:09:53;;;;;;;2.90;2.70;;;16.90;62.70;;;;;;5031623;28;43863;-73
2022/01/31 08:12:23;;;;;;;3.30;3.00;;;16.90;62.70;;;;;;5031667;28;45055;-73
2022/01/31 08:14:52;;;;;;;3.07;2.87;;;16.80;63.00;;;;;;5065908;28;43986;-73
2022/01/31 08:17:22;;;;;;;3.13;2.93;;;16.70;63.20;;;;;;5031856;28;43917;-74
2022/01/31 08:19:50;;;;;;;3.07;2.87;;;16.70;63.50;;;;;;5048082;28;44045;-73
2022/01/31 08:22:19;;;;;;;3.03;2.83;;;16.60;63.60;;;;;;5031368;28;45177;-73
2022/01/31 08:24:47;;;;;;;3.07;2.83;;;16.60;63.80;;;;;;5031071;28;43856;-75
2022/01/31 08:27:15;;;;;;;3.57;3.30;;;16.50;63.90;;;;;;5047043;28;43975;-73
2022/01/31 08:29:44;;;;;;;2.83;2.63;;;16.50;64.00;;;;;;5031050;28;43902;-73
2022/01/31 08:32:18;;;;;;;2.97;2.77;;;16.50;64.20;;;;;;5047473;28;44000;-74
2022/01/31 08:37:38;;;;;;;2.70;2.50;;;16.40;64.50;;;;;;5049970;28;44084;-74
2022/01/31 08:40:10;;;;;;;3.07;2.73;;;16.50;64.30;;;;;;5028641;28;44016;-74
2022/01/31 08:42:39;;;;;;;3.10;2.83;;;16.60;63.80;;;;;;5030776;28;43894;-73
2022/01/31 08:45:10;;;;;;;2.87;2.67;;;16.70;63.40;;;;;;5046931;28;44830;-73
2022/01/31 08:47:41;;;;;;;2.43;2.33;;;16.70;63.40;;;;;;5063927;28;43957;-73
2022/01/31 08:50:11;;;;;;;2.77;2.60;;;16.60;63.50;;;;;;5035036;28;43558;-74
2022/01/31 08:52:40;;;;;;;2.90;2.60;;;16.60;63.80;;;;;;5067562;28;43975;-73
2022/01/31 08:55:11;;;;;;;2.50;2.30;;;16.60;63.90;;;;;;5017527;28;44025;-73
2022/01/31 08:57:40;;;;;;;2.37;2.27;;;16.50;64.00;;;;;;5050178;28;44065;-73
2022/01/31 09:00:12;;;;;;;2.50;2.37;;;16.50;64.10;;;;;;5051065;28;43968;-73
2022/01/31 09:02:49;;;;;;;2.43;2.33;;;16.40;64.10;;;;;;5066849;28;43977;-73
2022/01/31 09:05:20;;;;;;;2.50;2.40;;;16.40;64.20;;;;;;5051564;28;43976;-73
2022/01/31 09:07:49;;;;;;;2.93;2.73;;;16.40;64.40;;;;;;5050370;28;43978;-73
2022/01/31 09:10:19;;;;;;;2.43;2.33;;;16.40;64.40;;;;;;5067199;28;43922;-73
2022/01/31 09:12:47;;;;;;;2.50;2.40;;;16.30;64.40;;;;;;5049948;28;45025;-74
2022/01/31 09:15:15;;;;;;;2.60;2.40;;;16.40;64.50;;;;;;5034345;28;44024;-73
2022/01/31 09:17:43;;;;;;;2.50;2.30;;;16.40;64.70;;;;;;5049980;28;44372;-73
2022/01/31 09:20:12;;;;;;;2.60;2.40;;;16.50;64.60;;;;;;5034110;28;43591;-74
2022/01/31 09:22:43;;;;;;;2.50;2.40;;;16.70;64.10;;;;;;5050052;28;44972;-73
2022/01/31 09:25:11;;;;;;;2.20;2.10;;;16.80;63.50;;;;;;5043802;28;43949;-73
2022/01/31 09:27:39;;;;;;;2.40;2.30;;;17.00;62.90;;;;;;5043153;28;43910;-73
2022/01/31 09:30:11;;;;;;;2.67;2.47;;;17.10;62.60;;;;;;5050336;28;43941;-74
2022/01/31 09:32:39;;;;;;;2.37;2.27;;;17.00;62.30;;;;;;5060581;28;43951;-73
2022/01/31 09:35:08;;;;;;;2.27;2.17;;;17.00;62.60;;;;;;5066325;28;43968;-73
2022/01/31 09:37:37;;;;;;;2.50;2.10;;;16.90;63.00;;;;;;5047512;28;44190;-74
2022/01/31 09:40:13;;;;;;;2.07;2.00;;;16.70;63.10;;;;;;5017511;28;43511;-74
2022/01/31 09:42:58;;;;;;;2.30;2.20;;;16.70;63.40;;;;;;5050321;28;45579;-73
2022/01/31 09:45:38;;;;;;;2.67;2.47;;;16.60;63.60;;;;;;5051837;28;43959;-73
2022/01/31 09:50:52;;;;;;;2.20;2.10;;;16.50;63.90;;;;;;5038657;28;44251;-74
2022/01/31 09:53:20;;;;;;;2.40;2.30;;;16.50;64.00;;;;;;5033614;28;43881;-73
2022/01/31 09:55:52;;;;;;;2.07;1.97;;;16.40;64.10;;;;;;5049505;28;43425;-74
2022/01/31 09:58:21;;;;;;;2.30;2.20;;;16.50;64.40;;;;;;5049272;28;44159;-74
2022/01/31 10:01:02;;;;;;;2.40;2.30;;;16.60;64.10;;;;;;5049789;28;44127;-73
2022/01/31 10:03:30;;;;;;;2.10;2.00;;;16.70;63.60;;;;;;5067650;28;43603;-74
2022/01/31 10:05:59;;;;;;;2.30;2.20;;;16.70;63.30;;;;;;5032704;28;44154;-74
2022/01/31 10:08:29;;;;;;;1.90;1.80;;;16.70;63.30;;;;;;5049515;28;43919;-73
2022/01/31 10:11:10;;;;;;;2.33;2.23;;;16.60;63.50;;;;;;5033627;28;44263;-73
2022/01/31 10:16:26;;;;;;;2.07;1.97;;;16.50;63.80;;;;;;5065829;28;44741;-74
2022/01/31 10:19:03;;;;;;;1.87;1.77;;;16.50;64.20;;;;;;5015948;28;43446;-74
2022/01/31 10:21:31;;;;;;;2.17;2.07;;;16.50;64.20;;;;;;5049925;28;43922;-74
2022/01/31 10:24:00;;;;;;;2.30;2.20;;;16.40;64.20;;;;;;5048904;28;44045;-73
2022/01/31 10:26:30;;;;;;;2.00;1.90;;;16.40;64.30;;;;;;5032316;28;43914;-73
2022/01/31 10:29:12;;;;;;;2.13;2.03;;;16.40;64.40;;;;;;5065600;28;43997;-74
2022/01/31 10:31:41;;;;;;;2.00;1.90;;;16.40;64.50;;;;;;5049332;28;44095;-75
2022/01/31 10:34:14;;;;;;;2.27;2.17;;;16.30;64.50;;;;;;5064927;28;44091;-73
2022/01/31 10:36:43;;;;;;;2.07;1.97;;;16.30;64.50;;;;;;5048801;28;43913;-73
2022/01/31 10:39:14;;;;;;;2.23;2.13;;;16.40;64.70;;;;;;5049097;28;43957;-73
2022/01/31 10:44:58;;;;;;;1.90;1.80;;;16.80;63.70;;;;;;5065266;28;44051;-73
2022/01/31 10:53:08;;;;;;;1.60;1.60;;;16.90;62.50;;;;;;5065449;28;43873;-74
2022/01/31 10:55:37;;;;;;;1.70;1.67;;;16.80;62.70;;;;;;5042413;28;43849;-74
2022/01/31 10:58:08;;;;;;;2.03;1.93;;;16.80;63.10;;;;;;5048401;28;44820;-73
2022/01/31 11:00:37;;;;;;;2.10;2.00;;;16.70;63.40;;;;;;5032643;28;43961;-73
2022/01/31 11:03:31;;;;;;;2.23;2.13;;;16.60;63.50;;;;;;5049407;28;44078;-73
2022/01/31 11:06:01;;;;;;;1.93;1.90;;;16.60;63.80;;;;;;5056111;28;44054;-74
2022/01/31 11:08:29;;;;;;;1.63;1.60;;;16.50;63.90;;;;;;5048520;28;43789;-74
2022/01/31 11:10:59;;;;;;;1.60;1.60;;;16.50;64.10;;;;;;5064746;28;44342;-74
2022/01/31 11:13:28;;;;;;;1.87;1.77;;;16.40;64.10;;;;;;5065675;28;43992;-74
2022/01/31 11:15:57;;;;;;;2.13;1.93;;;16.40;64.20;;;;;;5032325;28;44001;-74
2022/01/31 11:18:25;;;;;;;1.70;1.60;;;16.40;64.50;;;;;;5047963;28;44262;-74
2022/01/31 11:20:54;;;;;;;1.70;1.70;;;16.50;64.30;;;;;;5048939;28;43539;-74
2022/01/31 11:23:22;;;;;;;1.97;1.87;;;16.60;63.80;;;;;;5066157;28;43968;-74
2022/01/31 11:25:51;;;;;;;1.80;1.70;;;16.70;63.50;;;;;;5064942;28;43969;-73
2022/01/31 13:00:38;;;;;;;1.30;1.30;;;16.40;64.00;;;;;;5067474;28;44325;-73
2022/01/31 13:03:32;;;;;;;1.30;1.30;;;16.40;64.20;;;;;;5052933;28;43977;-74
2022/01/31 13:06:30;;;;;;;1.60;1.60;;;16.30;64.20;;;;;;5051510;28;43985;-73
2022/01/31 13:09:01;;;;;;;1.43;1.43;;;16.30;64.30;;;;;;5062349;28;43600;-74
2022/01/31 13:11:31;;;;;;;1.40;1.40;;;16.30;64.40;;;;;;5050284;28;45431;-73
2022/01/31 13:14:14;;;;;;;1.20;1.20;;;16.30;64.50;;;;;;5051374;28;43979;-73
2022/01/31 13:17:08;;;;;;;1.20;1.20;;;16.30;64.50;;;;;;5067707;28;43878;-74
2022/01/31 13:19:37;;;;;;;1.60;1.60;;;16.30;64.50;;;;;;5042338;28;43510;-75
2022/01/31 13:22:08;;;;;;;1.63;1.53;;;16.40;64.50;;;;;;5067040;28;45096;-73
2022/01/31 13:24:41;;;;;;;1.23;1.23;;;16.60;64.00;;;;;;5066445;28;44587;-73
2022/01/31 13:27:10;;;;;;;1.20;1.20;;;16.80;63.40;;;;;;5067380;28;43937;-76
2022/01/31 13:29:59;;;;;;;1.47;1.47;;;16.90;62.80;;;;;;5038877;28;44295;-74
2022/01/31 13:32:31;;;;;;;1.60;1.50;;;16.90;62.50;;;;;;5065863;28;44047;-73
2022/01/31 13:35:06;;;;;;;1.10;1.10;;;16.80;62.50;;;;;;5066300;28;44108;-73
2022/01/31 13:37:58;;;;;;;1.37;1.37;;;16.70;62.90;;;;;;5059910;28;43893;-73
2022/01/31 13:40:29;;;;;;;1.50;1.50;;;16.60;63.20;;;;;;5047327;28;43992;-73
2022/01/31 13:43:00;;;;;;;1.43;1.33;;;16.60;63.50;;;;;;5034197;28;43830;-73
2022/01/31 13:45:32;;;;;;;1.30;1.27;;;16.50;63.60;;;;;;5049865;28;43976;-74
2022/01/31 13:48:06;;;;;;;1.20;1.20;;;16.50;63.80;;;;;;5065992;28;44226;-76
2022/01/31 13:50:40;;;;;;;1.30;1.30;;;16.40;63.80;;;;;;5034032;28;43937;-74
2022/01/31 13:53:09;;;;;;;1.50;1.50;;;16.40;64.00;;;;;;5033182;28;46549;-75
2022/01/31 13:55:42;;;;;;;1.83;1.27;;;16.40;64.10;;;;;;5049171;28;44024;-73
2022/01/31 13:58:12;;;;;;;1.30;1.30;;;16.30;64.10;;;;;;5059536;28;43969;-73
2022/01/31 14:00:42;;;;;;;1.60;1.50;;;16.40;65.10;;;;;;5049929;28;43829;-73
2022/01/31 14:03:16;;;;;;;1.60;1.60;;;16.50;64.10;;;;;;5065621;28;44800;-73
2022/01/31 14:05:55;;;;;;;1.20;1.20;;;16.70;63.60;;;;;;5049091;28;43940;-73
2022/01/31 14:08:36;;;;;;;1.30;1.30;;;16.80;63.00;;;;;;5050024;28;43945;-74
2022/01/31 14:11:16;;;;;;;1.27;1.27;;;16.90;62.70;;;;;;5035294;28;44182;-74
2022/01/31 14:13:46;;;;;;;1.20;1.20;;;16.90;62.50;;;;;;5048710;28;43991;-73
2022/01/31 14:16:17;;;;;;;1.40;1.40;;;16.80;62.80;;;;;;5065839;28;44072;-73
2022/01/31 14:18:48;;;;;;;1.80;1.70;;;16.70;62.90;;;;;;5048951;28;43873;-73
2022/01/31 14:21:17;;;;;;;1.47;1.37;;;16.60;63.00;;;;;;5066760;28;43916;-73
2022/01/31 14:23:47;;;;;;;19.00;2.03;;;16.50;63.00;;;;;;5032374;28;43993;-73
2022/01/31 14:26:17;;;;;;;1.57;1.47;;;16.50;61.10;;;;;;5033130;28;44135;-71
2022/01/31 14:28:46;;;;;;;1.70;1.60;;;16.40;62.90;;;;;;5065368;28;43896;-73
2022/01/31 14:31:15;;;;;;;1.33;1.27;;;16.40;63.40;;;;;;5049001;28;44090;-75
2022/01/31 14:33:46;;;;;;;1.60;1.60;;;16.30;62.50;;;;;;5047196;28;43624;-73
2022/01/31 14:36:16;;;;;;;1.60;1.50;;;16.30;62.00;;;;;;5016568;28;44368;-73
2022/01/31 14:39:05;;;;;;;1.70;1.60;;;16.30;63.20;;;;;;5065335;28;43875;-74
2022/01/31 14:41:49;;;;;;;1.87;1.50;;;16.30;63.60;;;;;;5049787;28;43998;-73
2022/01/31 14:47:19;;;;;;;1.53;1.43;;;16.50;62.70;;;;;;5050453;28;44025;-74
2022/01/31 14:49:48;;;;;;;1.97;1.50;;;16.50;62.30;;;;;;5035634;28;43941;-74
2022/01/31 14:52:25;;;;;;;1.47;1.37;;;16.50;62.70;;;;;;5065929;28;44067;-73
2022/01/31 14:55:00;;;;;;;1.30;1.30;;;16.50;62.90;;;;;;5042791;28;44976;-73
2022/01/31 14:57:30;;;;;;;1.23;1.23;;;16.40;63.20;;;;;;5066469;28;43890;-74
2022/01/31 14:59:59;;;;;;;2.10;1.57;;;16.40;63.30;;;;;;5048403;28;43882;-73